Time;durP1;ratioP1;P1;durP2;ratioP2;P2;SDS_P1;SDS_P2;PMS_P1;PMS_P2;Temp;Humidity;BMP_temperature;BMP_pressure;BME280_temperature;BME280_humidity;BME280_pressure;Samples;Min_cycle;Max_cycle;Signal;HPM_P1;HPM_P2
2023/12/23 00:01:23;;;;;;;1.93;1.00;;;10.90;99.90;;;;;;5007081;28;20220;-87
2023/12/23 00:03:48;;;;;;;3.60;1.10;;;10.80;99.90;;;;;;4989764;28;20214;-86
2023/12/23 00:06:14;;;;;;;1.83;1.20;;;10.40;99.90;;;;;;5009401;28;20713;-84
2023/12/23 00:08:39;;;;;;;2.00;1.00;;;10.40;99.90;;;;;;4995016;28;20292;-84
2023/12/23 00:11:06;;;;;;;3.20;1.10;;;10.70;99.90;;;;;;5019506;28;20197;-83
2023/12/23 00:13:31;;;;;;;1.42;0.90;;;10.30;99.90;;;;;;5012049;28;20738;-84
2023/12/23 00:15:57;;;;;;;1.43;1.30;;;10.50;99.90;;;;;;5000884;28;20185;-84
2023/12/23 00:18:23;;;;;;;2.10;1.20;;;10.60;99.90;;;;;;4994745;28;20180;-84
2023/12/23 00:20:48;;;;;;;1.83;0.90;;;10.70;99.90;;;;;;4999747;28;20412;-84
2023/12/23 00:23:14;;;;;;;2.80;1.20;;;10.70;99.90;;;;;;5011217;28;20189;-83
2023/12/23 00:25:40;;;;;;;2.37;1.07;;;10.20;99.90;;;;;;4988979;28;20237;-83
2023/12/23 00:28:06;;;;;;;1.47;0.90;;;10.00;99.90;;;;;;4999908;28;20662;-85
2023/12/23 00:30:32;;;;;;;1.50;1.15;;;10.40;99.90;;;;;;5016425;28;20451;-85
2023/12/23 00:32:57;;;;;;;3.27;1.13;;;12.10;99.90;;;;;;5015300;28;20209;-83
2023/12/23 00:35:23;;;;;;;1.10;1.00;;;10.40;99.90;;;;;;5014251;28;20207;-83
2023/12/23 00:37:49;;;;;;;1.83;1.17;;;10.20;99.90;;;;;;5004434;28;20284;-82
2023/12/23 00:40:15;;;;;;;3.05;1.20;;;10.30;99.90;;;;;;5009355;28;20191;-84
2023/12/23 00:42:40;;;;;;;4.13;1.40;;;10.60;99.90;;;;;;5010611;28;20181;-83
2023/12/23 00:45:06;;;;;;;5.10;1.67;;;10.00;99.90;;;;;;5022021;28;20192;-84
2023/12/23 00:47:32;;;;;;;2.08;0.80;;;10.10;99.90;;;;;;5003124;28;20198;-83
2023/12/23 00:49:58;;;;;;;1.83;1.10;;;10.00;99.90;;;;;;5000004;28;20234;-84
2023/12/23 00:52:24;;;;;;;2.93;1.20;;;10.00;99.90;;;;;;5003281;28;20280;-84
2023/12/23 00:54:49;;;;;;;2.60;1.20;;;10.10;99.90;;;;;;5019280;28;20212;-84
2023/12/23 00:57:15;;;;;;;2.00;1.53;;;;;;;;;;5003106;28;20648;-84
2023/12/23 00:59:41;;;;;;;1.70;0.90;;;10.10;99.90;;;;;;4997634;28;20212;-83
2023/12/23 01:02:06;;;;;;;2.57;0.90;;;10.00;99.90;;;;;;5017479;28;20930;-82
2023/12/23 01:04:32;;;;;;;1.50;0.93;;;9.70;99.90;;;;;;5015357;28;20609;-82
2023/12/23 01:06:57;;;;;;;2.13;0.90;;;10.00;99.90;;;;;;5015376;28;20187;-83
2023/12/23 01:09:23;;;;;;;1.93;1.00;;;10.30;99.90;;;;;;5016063;28;20204;-83
2023/12/23 01:11:48;;;;;;;2.20;0.80;;;9.60;99.90;;;;;;5017215;28;20391;-83
2023/12/23 01:14:14;;;;;;;2.37;0.70;;;9.60;99.90;;;;;;4993888;28;20204;-84
2023/12/23 01:16:40;;;;;;;3.90;1.10;;;10.10;99.90;;;;;;5021000;28;20195;-83
2023/12/23 01:19:05;;;;;;;1.57;0.70;;;10.20;99.90;;;;;;5030866;28;20748;-84
2023/12/23 01:21:31;;;;;;;2.57;1.10;;;10.10;99.90;;;;;;5008844;28;20203;-83
2023/12/23 01:23:56;;;;;;;2.30;0.90;;;10.20;99.90;;;;;;5026135;28;20209;-84
2023/12/23 01:26:22;;;;;;;1.20;0.90;;;9.80;99.90;;;;;;5029945;28;20257;-84
2023/12/23 01:28:47;;;;;;;0.90;0.80;;;9.80;99.90;;;;;;5030243;28;20198;-82
2023/12/23 01:31:13;;;;;;;2.97;1.20;;;10.30;99.90;;;;;;5007054;28;20200;-84
2023/12/23 01:33:38;;;;;;;0.93;0.67;;;9.80;99.90;;;;;;5001224;28;20208;-84
2023/12/23 01:36:05;;;;;;;3.23;0.90;;;9.90;99.90;;;;;;5012695;28;20276;-84
2023/12/23 01:38:33;;;;;;;3.40;0.80;;;9.90;99.90;;;;;;5022927;28;20195;-84
2023/12/23 01:40:59;;;;;;;0.70;0.65;;;9.60;99.90;;;;;;5017522;28;20180;-84
2023/12/23 01:43:24;;;;;;;2.00;0.73;;;9.40;99.90;;;;;;4997183;28;20221;-83
2023/12/23 01:45:56;;;;;;;1.00;0.80;;;9.20;99.90;;;;;;5002704;28;20513;-83
2023/12/23 01:48:22;;;;;;;4.38;1.00;;;10.00;99.90;;;;;;4998341;28;20435;-83
2023/12/23 01:50:49;;;;;;;2.97;1.02;;;9.80;99.90;;;;;;4999476;28;20192;-84
2023/12/23 01:53:15;;;;;;;1.48;0.90;;;9.80;99.90;;;;;;4998767;28;20588;-82
2023/12/23 01:55:42;;;;;;;2.27;1.50;;;10.00;99.90;;;;;;5000063;28;20219;-83
2023/12/23 01:58:07;;;;;;;2.50;1.30;;;9.50;99.90;;;;;;5013578;28;20870;-84
2023/12/23 02:00:34;;;;;;;2.47;1.10;;;10.00;99.90;;;;;;5011300;28;20189;-83
2023/12/23 02:03:00;;;;;;;2.90;1.90;;;9.70;99.90;;;;;;5012250;28;20662;-83
2023/12/23 02:05:25;;;;;;;2.03;1.50;;;9.50;99.90;;;;;;5013671;28;20240;-83
2023/12/23 02:07:51;;;;;;;2.50;1.27;;;9.50;99.90;;;;;;5000479;28;20195;-83
2023/12/23 02:10:19;;;;;;;2.25;1.15;;;9.50;99.90;;;;;;5021504;28;20215;-85
2023/12/23 02:12:47;;;;;;;3.60;1.50;;;9.60;99.90;;;;;;5025795;28;20218;-84
2023/12/23 02:15:15;;;;;;;1.45;1.00;;;9.70;99.90;;;;;;5006629;28;20205;-85
2023/12/23 02:17:41;;;;;;;2.30;1.75;;;9.60;99.90;;;;;;5011413;28;20212;-84
2023/12/23 02:20:07;;;;;;;2.25;1.30;;;9.70;99.90;;;;;;5009926;28;20196;-84
2023/12/23 02:22:33;;;;;;;3.97;1.88;;;9.60;99.90;;;;;;5009877;28;20218;-84
2023/12/23 02:24:59;;;;;;;2.40;1.20;;;;;;;;;;5017276;28;20268;-84
2023/12/23 02:27:38;;;;;;;3.00;1.38;;;9.50;99.90;;;;;;5018281;28;20527;-84
2023/12/23 02:30:05;;;;;;;1.77;1.38;;;9.50;99.90;;;;;;4999133;28;20222;-84
2023/12/23 02:32:32;;;;;;;4.05;1.33;;;9.70;99.90;;;;;;4982274;28;20263;-84
2023/12/23 02:34:57;;;;;;;2.88;1.17;;;9.80;99.90;;;;;;4998736;28;20231;-84
2023/12/23 02:37:23;;;;;;;2.20;1.03;;;10.00;99.90;;;;;;4991931;28;20202;-83
2023/12/23 02:39:48;;;;;;;2.20;1.20;;;9.50;99.90;;;;;;5013358;28;20189;-84
2023/12/23 02:42:14;;;;;;;3.23;1.27;;;9.60;99.90;;;;;;4996444;28;20184;-84
2023/12/23 02:44:40;;;;;;;4.33;1.87;;;9.60;99.90;;;;;;5015099;28;20215;-82
2023/12/23 02:47:05;;;;;;;2.37;1.00;;;9.20;99.90;;;;;;4999302;28;20189;-84
2023/12/23 02:49:31;;;;;;;2.47;1.30;;;9.90;99.90;;;;;;5011865;28;20283;-84
2023/12/23 02:51:57;;;;;;;3.83;1.23;;;9.60;99.90;;;;;;5015297;28;20188;-84
2023/12/23 02:54:23;;;;;;;1.55;1.17;;;9.60;99.90;;;;;;4995393;28;20219;-84
2023/12/23 02:56:48;;;;;;;3.57;1.20;;;9.60;99.90;;;;;;5012457;28;20691;-84
2023/12/23 02:59:14;;;;;;;2.47;1.23;;;9.90;99.90;;;;;;5013560;28;20180;-84
2023/12/23 03:01:39;;;;;;;0.90;0.80;;;9.90;99.90;;;;;;5011577;28;20180;-84
2023/12/23 03:04:05;;;;;;;4.20;1.27;;;9.70;99.90;;;;;;5012021;28;20208;-84
2023/12/23 03:06:30;;;;;;;3.40;1.10;;;10.10;99.90;;;;;;5014969;28;20190;-84
2023/12/23 03:08:56;;;;;;;3.50;1.23;;;10.20;99.90;;;;;;5012868;28;20188;-84
2023/12/23 03:11:21;;;;;;;2.77;1.10;;;9.90;99.90;;;;;;4994941;28;20188;-84
2023/12/23 03:13:47;;;;;;;2.60;1.50;;;9.80;99.90;;;;;;5013026;28;20221;-84
2023/12/23 03:16:17;;;;;;;1.17;0.93;;;10.20;99.90;;;;;;4998132;28;20188;-84
2023/12/23 03:18:43;;;;;;;3.28;1.60;;;9.80;99.90;;;;;;4995958;28;20223;-84
2023/12/23 03:21:09;;;;;;;2.17;1.10;;;9.20;99.90;;;;;;5010665;28;20200;-85
2023/12/23 03:23:34;;;;;;;3.60;1.10;;;9.70;99.90;;;;;;5010482;28;20206;-85
2023/12/23 03:26:00;;;;;;;2.27;1.13;;;9.90;99.90;;;;;;5017276;28;20212;-84
2023/12/23 03:28:26;;;;;;;1.30;1.10;;;9.80;99.90;;;;;;5007425;28;20195;-84
2023/12/23 03:30:51;;;;;;;2.37;1.40;;;9.90;99.90;;;;;;5013408;28;20282;-85
2023/12/23 03:33:17;;;;;;;4.53;1.73;;;9.80;99.90;;;;;;5004055;28;20215;-84
2023/12/23 03:35:42;;;;;;;2.90;1.53;;;9.60;99.90;;;;;;4999149;28;20216;-85
2023/12/23 03:38:08;;;;;;;3.13;1.23;;;11.50;99.90;;;;;;5023787;23;20898;-88
2023/12/23 03:40:35;;;;;;;3.17;1.87;;;10.30;99.90;;;;;;5013467;28;20217;-88
2023/12/23 03:43:00;;;;;;;1.10;1.00;;;9.40;99.90;;;;;;5012275;28;20660;-88
2023/12/23 03:45:26;;;;;;;2.40;1.00;;;11.00;99.90;;;;;;5023165;28;20227;-88
2023/12/23 03:47:52;;;;;;;1.80;1.03;;;9.60;99.90;;;;;;5005183;28;20187;-88
2023/12/23 03:50:17;;;;;;;3.33;0.93;;;9.60;99.90;;;;;;5006221;28;20239;-88
2023/12/23 03:52:43;;;;;;;2.40;0.93;;;10.40;99.90;;;;;;5008431;28;20257;-88
2023/12/23 03:55:11;;;;;;;2.17;1.57;;;10.40;99.90;;;;;;5019322;28;20254;-88
2023/12/23 03:57:36;;;;;;;3.40;1.50;;;9.90;99.90;;;;;;5008619;28;20734;-88
2023/12/23 04:00:03;;;;;;;1.47;1.37;;;10.00;99.90;;;;;;5009806;28;20186;-88
2023/12/23 04:02:28;;;;;;;3.03;1.00;;;9.90;99.90;;;;;;5011172;28;20187;-88
2023/12/23 04:04:54;;;;;;;2.63;1.10;;;10.00;99.90;;;;;;5010234;28;20293;-88
2023/12/23 04:07:19;;;;;;;2.17;1.00;;;9.70;99.90;;;;;;5008088;28;20189;-88
2023/12/23 04:09:45;;;;;;;2.57;0.90;;;10.10;99.90;;;;;;5021662;28;20195;-88
2023/12/23 04:12:11;;;;;;;3.13;1.23;;;9.90;99.90;;;;;;5003098;28;20236;-88
2023/12/23 04:14:37;;;;;;;1.90;1.30;;;9.80;99.90;;;;;;5010407;28;20469;-88
2023/12/23 04:17:03;;;;;;;2.35;0.98;;;9.90;99.90;;;;;;5005957;28;20182;-88
2023/12/23 04:19:29;;;;;;;1.35;1.02;;;10.10;99.90;;;;;;5037168;28;20298;-88
2023/12/23 04:21:54;;;;;;;1.73;1.00;;;9.80;99.90;;;;;;5020854;28;20278;-88
2023/12/23 04:24:20;;;;;;;1.30;0.90;;;10.10;99.90;;;;;;5017865;28;20215;-88
2023/12/23 04:26:45;;;;;;;1.70;1.10;;;9.80;99.90;;;;;;5013865;28;20671;-88
2023/12/23 04:29:11;;;;;;;2.80;0.90;;;9.60;99.90;;;;;;5008317;28;20768;-88
2023/12/23 04:31:37;;;;;;;2.87;1.60;;;9.90;99.90;;;;;;5005211;28;20199;-88
2023/12/23 04:34:03;;;;;;;1.27;0.93;;;10.10;99.90;;;;;;5013672;28;20468;-88
2023/12/23 04:36:28;;;;;;;1.27;1.17;;;9.60;99.90;;;;;;5010539;28;20525;-88
2023/12/23 04:38:54;;;;;;;3.13;0.97;;;9.70;99.90;;;;;;5012265;28;20202;-88
2023/12/23 04:41:19;;;;;;;1.50;1.00;;;9.90;99.90;;;;;;5008484;28;20198;-88
2023/12/23 04:43:45;;;;;;;3.30;1.20;;;10.20;99.90;;;;;;5012465;28;20702;-88
2023/12/23 04:46:11;;;;;;;2.07;1.00;;;10.20;99.90;;;;;;5008759;28;20184;-88
2023/12/23 04:48:36;;;;;;;1.30;1.20;;;9.60;99.90;;;;;;5008835;28;20452;-88
2023/12/23 04:51:02;;;;;;;1.60;1.03;;;9.80;99.90;;;;;;5037905;28;20172;-88
2023/12/23 04:53:28;;;;;;;4.90;4.33;;;9.80;99.90;;;;;;5033054;28;20216;-88
2023/12/23 04:55:53;;;;;;;0.93;0.83;;;9.80;99.90;;;;;;5028436;28;20175;-88
2023/12/23 04:58:19;;;;;;;1.47;0.90;;;9.80;99.90;;;;;;5030609;28;20455;-88
2023/12/23 05:00:44;;;;;;;1.10;0.90;;;9.70;99.90;;;;;;5016562;28;20187;-88
2023/12/23 05:03:10;;;;;;;1.40;1.10;;;9.80;99.90;;;;;;5012034;28;20197;-89
2023/12/23 05:05:35;;;;;;;1.93;0.90;;;10.10;99.90;;;;;;5012869;28;20258;-88
2023/12/23 05:08:01;;;;;;;1.90;0.97;;;10.00;99.90;;;;;;5016904;28;20483;-88
2023/12/23 05:10:26;;;;;;;0.87;0.67;;;10.20;99.90;;;;;;5010636;28;20200;-88
2023/12/23 05:12:52;;;;;;;1.70;1.10;;;9.90;99.90;;;;;;5011935;28;20251;-88
2023/12/23 05:15:17;;;;;;;1.63;0.70;;;10.40;99.90;;;;;;5013431;28;20291;-88
2023/12/23 05:17:43;;;;;;;1.10;1.00;;;10.10;99.90;;;;;;5007268;28;20184;-88
2023/12/23 05:20:10;;;;;;;1.10;0.60;;;10.40;99.90;;;;;;5013611;28;20271;-88
2023/12/23 05:22:36;;;;;;;2.80;1.00;;;10.20;99.90;;;;;;5013445;28;20191;-88
2023/12/23 05:25:02;;;;;;;2.93;0.70;;;10.30;99.90;;;;;;5013862;28;20614;-88
2023/12/23 05:27:28;;;;;;;2.55;0.80;;;10.00;99.90;;;;;;5010664;28;20222;-88
2023/12/23 05:29:55;;;;;;;4.27;0.90;;;10.00;99.90;;;;;;5027992;28;20194;-88
2023/12/23 05:32:21;;;;;;;0.80;0.63;;;10.40;99.90;;;;;;5026067;28;20206;-88
2023/12/23 05:34:46;;;;;;;1.07;0.77;;;10.00;99.90;;;;;;5031613;28;20235;-87
2023/12/23 05:37:12;;;;;;;0.90;0.50;;;10.00;99.90;;;;;;5025150;28;20619;-87
2023/12/23 05:39:39;;;;;;;0.93;0.60;;;10.50;99.90;;;;;;5018923;28;20214;-87
2023/12/23 05:42:04;;;;;;;0.70;0.60;;;10.20;99.90;;;;;;5029151;28;20185;-87
2023/12/23 05:44:31;;;;;;;0.70;0.50;;;9.90;99.90;;;;;;5013417;28;20200;-87
2023/12/23 05:46:57;;;;;;;1.60;0.70;;;10.20;99.90;;;;;;5029815;28;20802;-87
2023/12/23 05:49:22;;;;;;;1.37;0.60;;;10.10;99.90;;;;;;5011542;28;20177;-87
2023/12/23 05:51:48;;;;;;;0.70;0.50;;;9.80;99.90;;;;;;5025321;28;20179;-87
2023/12/23 05:54:14;;;;;;;0.60;0.50;;;10.30;99.90;;;;;;5013303;28;20458;-87
2023/12/23 05:56:39;;;;;;;1.00;0.60;;;10.20;99.90;;;;;;5020910;28;20188;-87
2023/12/23 05:59:05;;;;;;;1.63;0.80;;;10.00;99.90;;;;;;5030219;28;20558;-87
2023/12/23 06:01:30;;;;;;;1.33;0.60;;;10.10;99.90;;;;;;5028305;28;20229;-87
2023/12/23 06:03:56;;;;;;;0.60;0.47;;;9.90;99.90;;;;;;5019060;28;20737;-87
2023/12/23 06:06:21;;;;;;;1.60;0.63;;;9.70;99.90;;;;;;5033486;28;20533;-87
2023/12/23 06:08:47;;;;;;;0.70;0.60;;;9.50;99.90;;;;;;5030227;28;20195;-87
2023/12/23 06:11:13;;;;;;;0.90;0.70;;;9.70;99.90;;;;;;5021169;28;20195;-87
2023/12/23 06:13:40;;;;;;;0.63;0.47;;;9.40;99.90;;;;;;5028425;28;20230;-87
2023/12/23 06:16:06;;;;;;;0.70;0.65;;;9.70;99.90;;;;;;5043235;28;20185;-87
2023/12/23 06:18:33;;;;;;;0.73;0.60;;;9.60;99.90;;;;;;5018005;28;20675;-87
2023/12/23 06:20:58;;;;;;;0.60;0.50;;;9.90;99.90;;;;;;5009474;28;20294;-87
2023/12/23 06:23:24;;;;;;;1.13;0.47;;;9.90;99.90;;;;;;5010958;28;20286;-87
2023/12/23 06:25:50;;;;;;;0.70;0.60;;;9.40;99.90;;;;;;5013618;28;20192;-87
2023/12/23 06:28:15;;;;;;;0.60;0.50;;;9.40;99.90;;;;;;5007256;28;20269;-87
2023/12/23 06:30:42;;;;;;;0.60;0.50;;;9.50;99.90;;;;;;5016715;28;20679;-87
2023/12/23 06:33:07;;;;;;;0.70;0.40;;;9.60;99.90;;;;;;5026825;28;20765;-87
2023/12/23 06:35:33;;;;;;;0.67;0.60;;;9.30;99.90;;;;;;5006867;28;20293;-87
2023/12/23 06:37:58;;;;;;;0.90;0.50;;;9.30;99.90;;;;;;5030248;28;20281;-87
2023/12/23 06:40:24;;;;;;;0.60;0.50;;;9.50;99.90;;;;;;5014587;28;20688;-87
2023/12/23 06:42:49;;;;;;;0.60;0.40;;;9.50;99.90;;;;;;5007850;28;20306;-87
2023/12/23 06:45:15;;;;;;;0.70;0.50;;;9.80;99.90;;;;;;5012863;28;20590;-87
2023/12/23 06:47:41;;;;;;;0.60;0.40;;;9.60;99.90;;;;;;5012143;28;20218;-86
2023/12/23 06:50:07;;;;;;;0.70;0.53;;;9.80;99.90;;;;;;5027612;28;20224;-87
2023/12/23 06:52:32;;;;;;;0.60;0.40;;;9.70;99.90;;;;;;5009258;28;20623;-87
2023/12/23 06:54:58;;;;;;;1.07;0.50;;;9.60;99.90;;;;;;5012480;28;20460;-87
2023/12/23 06:57:23;;;;;;;1.20;0.40;;;9.80;99.90;;;;;;5026148;28;20183;-86
2023/12/23 06:59:49;;;;;;;0.60;0.43;;;9.30;99.90;;;;;;5019702;28;20190;-87
2023/12/23 07:02:18;;;;;;;1.23;0.50;;;9.50;99.90;;;;;;5022415;28;20186;-86
2023/12/23 07:04:43;;;;;;;2.60;0.50;;;9.60;99.90;;;;;;5028606;28;20244;-87
2023/12/23 07:07:10;;;;;;;0.60;0.50;;;;;;;;;;5030658;28;20270;-86
2023/12/23 07:09:35;;;;;;;0.82;0.60;;;9.40;99.90;;;;;;5017854;28;20175;-87
2023/12/23 07:12:01;;;;;;;0.60;0.40;;;9.90;99.90;;;;;;5036539;28;20182;-87
2023/12/23 07:14:26;;;;;;;0.60;0.50;;;9.70;99.90;;;;;;5016279;28;20634;-87
2023/12/23 07:16:52;;;;;;;1.20;0.50;;;9.10;99.90;;;;;;5027348;28;20247;-87
2023/12/23 07:19:19;;;;;;;0.70;0.50;;;;;;;;;;5030163;28;20187;-87
2023/12/23 07:21:45;;;;;;;0.60;0.40;;;9.30;99.90;;;;;;5018326;28;20834;-87
2023/12/23 07:24:11;;;;;;;1.13;0.50;;;;;;;;;;5013823;28;20229;-87
2023/12/23 07:26:36;;;;;;;0.80;0.50;;;9.30;99.90;;;;;;5014064;28;20222;-87
2023/12/23 07:29:03;;;;;;;1.23;0.50;;;9.40;99.90;;;;;;5011370;28;20448;-87
2023/12/23 07:31:32;;;;;;;1.92;0.60;;;9.70;99.90;;;;;;5029913;28;20241;-87
2023/12/23 07:33:58;;;;;;;0.60;0.50;;;10.90;99.90;;;;;;5016928;28;20320;-87
2023/12/23 07:36:24;;;;;;;0.93;0.60;;;8.80;99.90;;;;;;5008986;28;20177;-87
2023/12/23 07:38:49;;;;;;;0.60;0.40;;;9.30;99.90;;;;;;5016845;28;20273;-87
2023/12/23 07:41:15;;;;;;;1.03;0.70;;;10.00;99.90;;;;;;5014106;28;20713;-87
2023/12/23 07:43:41;;;;;;;1.10;0.53;;;9.60;99.90;;;;;;5022837;28;20193;-86
2023/12/23 07:46:08;;;;;;;0.70;0.60;;;9.50;99.90;;;;;;5035703;28;20191;-87
2023/12/23 07:48:33;;;;;;;0.63;0.50;;;9.60;99.90;;;;;;5018293;28;20217;-87
2023/12/23 07:51:19;;;;;;;1.20;0.60;;;9.00;99.90;;;;;;5013179;28;20184;-87
2023/12/23 07:53:44;;;;;;;0.60;0.47;;;8.60;99.90;;;;;;5024022;28;20217;-87
2023/12/23 08:00:50;;;;;;;;;;;;;;;;;;;;;
2023/12/23 08:03:33;;;;;;;0.80;0.80;;;9.70;99.90;;;;;;5027971;28;20209;-88
2023/12/23 08:05:59;;;;;;;0.68;0.50;;;11.10;99.90;;;;;;5017662;28;20218;-87
2023/12/23 08:08:24;;;;;;;1.10;0.53;;;;;;;;;;5041986;28;20185;-85
2023/12/23 08:10:52;;;;;;;0.60;0.50;;;9.60;99.90;;;;;;5045999;28;20184;-85
2023/12/23 08:13:18;;;;;;;0.70;0.52;;;9.40;99.90;;;;;;5037486;28;20561;-85
2023/12/23 08:15:44;;;;;;;0.87;0.50;;;;;;;;;;5029972;28;20222;-85
2023/12/23 08:18:10;;;;;;;1.13;0.50;;;9.50;99.90;;;;;;5028104;28;20456;-85
2023/12/23 08:20:36;;;;;;;0.75;0.55;;;12.00;99.90;;;;;;5041961;28;20187;-83
2023/12/23 08:23:01;;;;;;;0.87;0.50;;;11.00;99.90;;;;;;5040863;28;20694;-85
2023/12/23 08:25:27;;;;;;;0.60;0.60;;;10.80;99.90;;;;;;5035680;28;20212;-85
2023/12/23 08:27:52;;;;;;;0.70;0.50;;;9.20;99.90;;;;;;5020648;28;20197;-87
2023/12/23 08:30:18;;;;;;;0.60;0.50;;;10.90;99.90;;;;;;5022055;28;20259;-86
2023/12/23 08:32:43;;;;;;;0.80;0.47;;;10.00;99.90;;;;;;5027429;28;20211;-86
2023/12/23 08:35:09;;;;;;;0.70;0.50;;;11.60;99.90;;;;;;5018374;28;20203;-86
2023/12/23 08:37:37;;;;;;;0.60;0.50;;;10.10;99.90;;;;;;5014288;28;20206;-87
2023/12/23 08:40:04;;;;;;;0.60;0.40;;;11.50;99.90;;;;;;5013310;28;20182;-87
2023/12/23 08:48:45;;;;;;;0.60;0.50;;;10.40;99.90;;;;;;4986210;28;20245;-86
2023/12/23 08:51:11;;;;;;;0.70;0.50;;;;;;;;;;5016580;28;20186;-85
2023/12/23 08:53:37;;;;;;;1.00;0.50;;;10.00;99.90;;;;;;5014092;28;20203;-85
2023/12/23 08:56:03;;;;;;;0.57;0.40;;;8.20;99.90;;;;;;5035078;28;20449;-85
2023/12/23 08:58:30;;;;;;;1.02;0.47;;;9.90;99.90;;;;;;5010315;28;20187;-85
2023/12/23 09:00:57;;;;;;;0.70;0.60;;;9.80;99.90;;;;;;5012676;28;20175;-85
2023/12/23 09:03:22;;;;;;;0.70;0.50;;;10.10;99.90;;;;;;5015502;28;20286;-86
2023/12/23 09:05:48;;;;;;;0.60;0.50;;;10.30;99.90;;;;;;5019503;28;20189;-85
2023/12/23 09:08:14;;;;;;;0.60;0.50;;;9.60;99.90;;;;;;5030272;28;20179;-85
2023/12/23 09:10:39;;;;;;;0.60;0.50;;;10.10;99.90;;;;;;5026262;28;20546;-85
2023/12/23 09:13:05;;;;;;;1.00;0.60;;;10.00;99.90;;;;;;5012737;28;20612;-85
2023/12/23 09:15:31;;;;;;;0.73;0.60;;;9.90;99.90;;;;;;5016266;28;20212;-85
2023/12/23 09:17:56;;;;;;;0.90;0.40;;;9.50;99.90;;;;;;5025321;28;20191;-86
2023/12/23 09:20:22;;;;;;;0.60;0.60;;;;;;;;;;5057119;28;20198;-87
2023/12/23 09:22:48;;;;;;;0.80;0.50;;;10.40;99.90;;;;;;5023593;28;20200;-87
2023/12/23 09:25:13;;;;;;;0.60;0.50;;;10.60;99.90;;;;;;5020535;28;21024;-88
2023/12/23 09:27:39;;;;;;;1.00;0.80;;;10.30;99.90;;;;;;5017812;28;20196;-88
2023/12/23 09:30:05;;;;;;;0.60;0.40;;;10.30;99.90;;;;;;5014678;28;20643;-87
2023/12/23 09:33:11;;;;;;;2.03;0.80;;;10.40;99.90;;;;;;5018929;28;20750;-86
2023/12/23 09:35:53;;;;;;;;;;;;;;;;;;;;;
2023/12/23 09:38:19;;;;;;;0.68;0.52;;;;;;;;;;5054709;22;20807;-91
2023/12/23 09:40:45;;;;;;;1.27;0.60;;;10.30;99.90;;;;;;5036256;28;20188;-92
2023/12/23 09:43:12;;;;;;;0.80;0.60;;;10.40;99.90;;;;;;5000378;28;20185;-89
2023/12/23 09:45:39;;;;;;;2.08;0.45;;;10.20;99.90;;;;;;5029206;28;20218;-88
2023/12/23 09:48:05;;;;;;;0.70;0.60;;;10.30;99.90;;;;;;5013987;28;20199;-88
2023/12/23 09:50:30;;;;;;;2.13;0.57;;;10.70;99.90;;;;;;5018854;28;20561;-90
2023/12/23 09:52:59;;;;;;;0.60;0.40;;;10.30;99.90;;;;;;5012116;28;20464;-86
2023/12/23 09:55:26;;;;;;;1.25;0.50;;;10.40;99.90;;;;;;5027006;28;20250;-88
2023/12/23 09:57:51;;;;;;;1.13;0.45;;;10.50;99.90;;;;;;5012503;28;20687;-89
2023/12/23 10:00:18;;;;;;;0.60;0.40;;;;;;;;;;5012518;28;20209;-90
2023/12/23 10:02:44;;;;;;;0.70;0.50;;;10.70;99.90;;;;;;5014187;28;20181;-87
2023/12/23 10:05:09;;;;;;;0.90;0.50;;;10.60;99.90;;;;;;5007974;28;20254;-86
2023/12/23 10:07:35;;;;;;;2.40;0.50;;;10.60;99.90;;;;;;5014347;28;20188;-88
2023/12/23 10:10:00;;;;;;;0.60;0.50;;;10.50;99.90;;;;;;5016048;28;20191;-88
2023/12/23 10:12:35;;;;;;;1.37;0.60;;;10.70;99.90;;;;;;5011463;28;20796;-86
2023/12/23 10:15:00;;;;;;;0.60;0.50;;;10.50;99.90;;;;;;5009134;28;20205;-88
2023/12/23 10:17:26;;;;;;;1.03;0.80;;;10.80;99.90;;;;;;5011848;28;20193;-88
2023/12/23 10:19:55;;;;;;;0.60;0.40;;;10.60;99.90;;;;;;5012899;28;20243;-87
2023/12/23 10:22:20;;;;;;;0.60;0.50;;;10.90;99.90;;;;;;5013618;28;20189;-87
2023/12/23 10:24:46;;;;;;;0.60;0.50;;;10.50;99.90;;;;;;5011880;28;20205;-88
2023/12/23 10:27:16;;;;;;;0.60;0.40;;;10.90;99.90;;;;;;5012305;28;20266;-87
2023/12/23 10:29:43;;;;;;;1.08;0.52;;;11.10;99.90;;;;;;5010481;28;20192;-87
2023/12/23 10:32:15;;;;;;;1.05;0.50;;;11.00;99.90;;;;;;5009877;28;20189;-87
2023/12/23 10:34:44;;;;;;;2.38;0.60;;;10.80;99.90;;;;;;5011727;28;20200;-87
2023/12/23 10:37:11;;;;;;;0.60;0.40;;;11.20;99.90;;;;;;5013110;28;20250;-89
2023/12/23 10:39:45;;;;;;;1.02;0.50;;;11.00;99.90;;;;;;5010946;28;20297;-89
2023/12/23 10:42:19;;;;;;;0.60;0.40;;;10.80;99.90;;;;;;5010190;28;20484;-88
2023/12/23 10:44:46;;;;;;;0.60;0.40;;;10.40;99.90;;;;;;5011007;28;20558;-88
2023/12/23 10:47:14;;;;;;;0.82;0.55;;;10.70;99.90;;;;;;5013431;28;20183;-88
2023/12/23 10:49:40;;;;;;;0.60;0.45;;;10.90;99.90;;;;;;5009572;28;20640;-88
2023/12/23 10:52:07;;;;;;;1.60;0.50;;;10.80;99.90;;;;;;5011708;28;20276;-88
2023/12/23 10:54:35;;;;;;;0.60;0.50;;;10.90;99.90;;;;;;5011629;28;20218;-88
2023/12/23 10:57:01;;;;;;;5.47;0.50;;;11.20;99.90;;;;;;5014490;28;20554;-88
2023/12/23 10:59:27;;;;;;;0.82;0.43;;;10.50;99.90;;;;;;5011293;28;20186;-88
2023/12/23 11:01:55;;;;;;;0.70;0.50;;;10.60;99.90;;;;;;5014733;28;20288;-87
2023/12/23 11:04:24;;;;;;;0.60;0.40;;;11.40;99.90;;;;;;5010092;28;20205;-87
2023/12/23 11:06:52;;;;;;;0.60;0.52;;;11.10;99.90;;;;;;5021522;28;20236;-89
2023/12/23 11:09:20;;;;;;;0.70;0.40;;;11.20;99.90;;;;;;5013368;28;20173;-88
2023/12/23 11:11:47;;;;;;;0.60;0.50;;;11.20;99.90;;;;;;5023973;28;20169;-88
2023/12/23 11:14:13;;;;;;;0.90;0.50;;;10.90;99.90;;;;;;5036361;28;20235;-87
2023/12/23 11:16:43;;;;;;;0.82;0.50;;;11.10;99.90;;;;;;5018757;28;20200;-88
2023/12/23 11:19:08;;;;;;;0.70;0.60;;;11.10;99.90;;;;;;5010881;28;20185;-87
2023/12/23 11:21:35;;;;;;;0.80;0.50;;;10.80;99.90;;;;;;5009587;28;20193;-88
2023/12/23 11:24:00;;;;;;;0.80;0.60;;;11.10;99.90;;;;;;5010009;28;20240;-88
2023/12/23 11:26:35;;;;;;;0.60;0.40;;;10.70;99.90;;;;;;5013843;28;20220;-88
2023/12/23 11:29:04;;;;;;;1.42;0.70;;;10.90;99.90;;;;;;5011457;28;20278;-89
2023/12/23 11:31:30;;;;;;;0.80;0.50;;;11.00;99.90;;;;;;5029229;28;20206;-88
2023/12/23 11:33:56;;;;;;;0.70;0.50;;;11.00;99.90;;;;;;5004828;28;20705;-88
2023/12/23 11:36:23;;;;;;;0.60;0.50;;;10.90;99.90;;;;;;5013456;28;20219;-87
2023/12/23 11:38:50;;;;;;;0.57;0.40;;;11.20;99.90;;;;;;5006877;28;20593;-88
2023/12/23 11:41:20;;;;;;;0.60;0.40;;;11.30;99.90;;;;;;5020523;28;20174;-87
2023/12/23 11:43:47;;;;;;;0.70;0.60;;;11.00;99.90;;;;;;5037129;28;20228;-88
2023/12/23 11:46:13;;;;;;;2.00;1.80;;;11.20;99.90;;;;;;5020263;28;20196;-88
2023/12/23 11:48:39;;;;;;;0.65;0.50;;;11.20;99.90;;;;;;5016933;28;20190;-88
2023/12/23 11:51:06;;;;;;;0.70;0.50;;;11.20;99.90;;;;;;5018257;28;20193;-88
2023/12/23 11:53:33;;;;;;;1.92;0.50;;;11.40;99.90;;;;;;5019140;28;20463;-88
2023/12/23 11:56:00;;;;;;;0.80;0.60;;;12.40;99.90;;;;;;5035555;28;20181;-87
2023/12/23 11:58:27;;;;;;;0.95;0.60;;;11.20;99.90;;;;;;5014753;28;20187;-88
2023/12/23 12:00:54;;;;;;;0.60;0.50;;;11.10;99.90;;;;;;5017074;28;20229;-87
2023/12/23 12:03:20;;;;;;;0.98;0.63;;;11.50;99.90;;;;;;5033693;28;20186;-87
2023/12/23 12:05:46;;;;;;;1.30;0.60;;;;;;;;;;5016635;28;20224;-88
2023/12/23 12:08:12;;;;;;;1.00;0.60;;;11.10;99.90;;;;;;5015719;28;20219;-89
2023/12/23 12:10:38;;;;;;;1.27;1.17;;;10.40;99.90;;;;;;5015633;28;20283;-88
2023/12/23 12:13:04;;;;;;;1.67;0.45;;;;;;;;;;5016565;28;20541;-88
2023/12/23 12:15:30;;;;;;;0.88;0.50;;;;;;;;;;5012411;28;20203;-89
2023/12/23 12:17:56;;;;;;;0.60;0.50;;;;;;;;;;5015167;28;20652;-89
2023/12/23 12:20:22;;;;;;;0.60;0.50;;;11.20;99.90;;;;;;5016864;28;20825;-88
2023/12/23 12:22:49;;;;;;;0.60;0.50;;;;;;;;;;5018653;28;20471;-88
2023/12/23 12:25:15;;;;;;;0.73;0.47;;;10.90;99.90;;;;;;5014496;28;20209;-88
2023/12/23 12:27:42;;;;;;;0.60;0.50;;;12.40;99.90;;;;;;5017418;28;20192;-89
2023/12/23 12:30:09;;;;;;;0.68;0.50;;;10.30;99.90;;;;;;5035284;28;20199;-88
2023/12/23 12:32:35;;;;;;;0.60;0.50;;;;;;;;;;5039340;28;20294;-87
2023/12/23 12:35:01;;;;;;;1.00;0.50;;;11.00;99.90;;;;;;5018065;28;20281;-89
2023/12/23 12:37:27;;;;;;;1.70;1.60;;;;;;;;;;5020084;28;20646;-87
2023/12/23 12:39:53;;;;;;;0.90;0.70;;;10.70;99.90;;;;;;5018850;28;20244;-87
2023/12/23 12:42:20;;;;;;;1.10;1.00;;;;;;;;;;5018912;28;21230;-88
2023/12/23 12:44:47;;;;;;;0.60;0.50;;;11.10;99.90;;;;;;5015224;28;20220;-88
2023/12/23 12:47:13;;;;;;;1.77;1.25;;;11.60;99.90;;;;;;5013191;28;20636;-88
2023/12/23 12:49:44;;;;;;;0.63;0.53;;;10.10;99.90;;;;;;5013971;28;20198;-88
2023/12/23 12:52:13;;;;;;;0.60;0.50;;;11.00;99.90;;;;;;5016979;28;20186;-88
2023/12/23 12:54:39;;;;;;;0.88;0.50;;;12.40;99.90;;;;;;5013157;28;20264;-88
2023/12/23 12:57:05;;;;;;;0.88;0.63;;;11.90;99.90;;;;;;5012079;28;20249;-88
2023/12/23 12:59:30;;;;;;;0.60;0.50;;;12.60;99.90;;;;;;5008994;28;20289;-89
2023/12/23 13:01:56;;;;;;;0.60;0.40;;;;;;;;;;4998201;28;20257;-88
2023/12/23 13:04:22;;;;;;;0.60;0.45;;;11.20;99.90;;;;;;5015978;28;20207;-88
2023/12/23 13:06:48;;;;;;;0.80;0.60;;;10.90;99.90;;;;;;5015768;28;20681;-88